Time;durP1;ratioP1;P1;durP2;ratioP2;P2;SDS_P1;SDS_P2;PMS_P1;PMS_P2;Temp;Humidity;BMP_temperature;BMP_pressure;BME280_temperature;BME280_humidity;BME280_pressure;Samples;Min_cycle;Max_cycle;Signal;HPM_P1;HPM_P2
2023/03/20 00:01:27;;;;;;;3.00;2.80;;;11.20;99.90;;;;;;5089946;28;20085;-76
2023/03/20 00:03:53;;;;;;;4.18;2.30;;;11.20;99.90;;;;;;5090445;28;20261;-75
2023/03/20 00:06:22;;;;;;;2.83;2.53;;;11.20;99.90;;;;;;5089372;28;20028;-76
2023/03/20 00:08:50;;;;;;;2.75;2.20;;;11.20;99.90;;;;;;5090241;28;20111;-75
2023/03/20 00:11:32;;;;;;;2.90;2.60;;;11.20;99.90;;;;;;5090196;28;20109;-80
2023/03/20 00:14:05;;;;;;;2.58;2.38;;;11.20;99.90;;;;;;5090557;28;20121;-76
2023/03/20 00:16:35;;;;;;;;;;;11.30;99.90;;;;;;5090281;28;20028;-75
2023/03/20 00:19:02;;;;;;;2.40;2.10;;;11.30;99.90;;;;;;5090154;28;19911;-76
2023/03/20 00:21:28;;;;;;;2.30;1.95;;;11.30;99.90;;;;;;5089367;28;20537;-75
2023/03/20 00:23:54;;;;;;;3.22;2.22;;;11.30;99.90;;;;;;5088683;28;20031;-76
2023/03/20 00:26:29;;;;;;;2.10;1.90;;;11.30;99.90;;;;;;5089145;28;20396;-76
2023/03/20 00:28:56;;;;;;;2.50;1.90;;;11.40;99.90;;;;;;5090269;28;20040;-76
2023/03/20 00:31:28;;;;;;;2.22;2.00;;;11.40;99.90;;;;;;5091210;28;20032;-75
2023/03/20 00:33:59;;;;;;;2.13;1.90;;;11.50;99.90;;;;;;5093730;28;20034;-75
2023/03/20 00:36:25;;;;;;;1.80;1.70;;;11.50;99.90;;;;;;5093299;28;20111;-75
2023/03/20 00:38:51;;;;;;;2.65;2.28;;;11.40;99.90;;;;;;5093742;28;20024;-75
2023/03/20 00:41:40;;;;;;;2.33;2.05;;;11.40;99.90;;;;;;5093666;28;20020;-78
2023/03/20 00:44:26;;;;;;;3.33;2.20;;;11.50;99.90;;;;;;5093535;28;20103;-75
2023/03/20 00:47:10;;;;;;;2.90;2.20;;;11.50;99.90;;;;;;5093259;28;20021;-75
2023/03/20 00:49:37;;;;;;;2.97;2.30;;;11.50;99.90;;;;;;5092603;28;20035;-75
2023/03/20 00:52:04;;;;;;;3.13;2.25;;;11.50;99.90;;;;;;5093323;28;20451;-75
2023/03/20 00:54:30;;;;;;;2.70;2.50;;;11.50;99.90;;;;;;5092694;28;20032;-75
2023/03/20 00:57:05;;;;;;;2.35;2.15;;;11.50;99.90;;;;;;5093250;28;20099;-75
2023/03/20 00:59:49;;;;;;;5.00;2.88;;;11.50;99.90;;;;;;5092687;28;20028;-76
2023/03/20 01:02:15;;;;;;;4.63;3.08;;;11.50;99.90;;;;;;5093248;28;20047;-75
2023/03/20 01:04:41;;;;;;;3.00;2.35;;;11.50;99.90;;;;;;5092594;28;20108;-75
2023/03/20 01:07:12;;;;;;;5.50;2.72;;;11.50;99.90;;;;;;5093490;28;20481;-76
2023/03/20 01:09:38;;;;;;;4.47;2.80;;;11.40;99.90;;;;;;5093045;28;20513;-75
2023/03/20 01:12:06;;;;;;;3.00;2.70;;;11.50;99.90;;;;;;5093115;28;20085;-76
2023/03/20 01:14:33;;;;;;;3.05;2.67;;;11.50;99.90;;;;;;5091127;28;20050;-75
2023/03/20 01:16:59;;;;;;;3.17;2.60;;;11.50;99.90;;;;;;5092982;28;20140;-75
2023/03/20 01:19:24;;;;;;;2.63;2.42;;;11.50;99.90;;;;;;5092646;28;20043;-75
2023/03/20 01:21:50;;;;;;;2.65;2.22;;;11.40;99.90;;;;;;5092812;28;20032;-75
2023/03/20 01:24:16;;;;;;;2.85;2.65;;;11.50;99.90;;;;;;5092778;28;20024;-75
2023/03/20 01:26:43;;;;;;;2.40;2.20;;;11.50;99.90;;;;;;5090395;28;20035;-75
2023/03/20 01:29:36;;;;;;;2.63;2.42;;;11.50;99.90;;;;;;5091458;28;20453;-76
2023/03/20 01:32:01;;;;;;;2.65;2.40;;;11.40;99.90;;;;;;5089116;28;20127;-76
2023/03/20 01:34:27;;;;;;;2.88;2.30;;;11.40;99.90;;;;;;5092047;28;20103;-75
2023/03/20 01:36:56;;;;;;;2.90;2.53;;;11.40;99.90;;;;;;5092374;28;20107;-75
2023/03/20 01:39:31;;;;;;;2.47;2.28;;;11.40;99.90;;;;;;5091911;28;20024;-79
2023/03/20 01:41:58;;;;;;;2.90;2.63;;;11.40;99.90;;;;;;5092217;28;20032;-75
2023/03/20 01:44:27;;;;;;;4.13;2.35;;;11.40;99.90;;;;;;5091547;28;20028;-79
2023/03/20 01:46:54;;;;;;;3.28;2.50;;;11.40;99.90;;;;;;5092422;28;20123;-75
2023/03/20 01:49:20;;;;;;;2.22;2.03;;;11.40;99.90;;;;;;5092240;28;20028;-76
2023/03/20 01:51:50;;;;;;;2.35;2.10;;;11.40;99.90;;;;;;5092013;28;20047;-76
2023/03/20 01:54:27;;;;;;;3.53;2.08;;;11.50;99.90;;;;;;5092013;28;20062;-76
2023/03/20 01:56:55;;;;;;;2.08;1.85;;;11.50;99.90;;;;;;5092110;28;20069;-76
2023/03/20 01:59:55;;;;;;;4.10;2.65;;;11.50;99.90;;;;;;5092520;28;20028;-76
2023/03/20 02:02:24;;;;;;;4.53;2.25;;;11.40;99.90;;;;;;5092001;28;20031;-75
2023/03/20 02:04:56;;;;;;;5.38;3.00;;;11.50;99.90;;;;;;5090479;28;20024;-75
2023/03/20 02:07:23;;;;;;;6.18;3.03;;;11.50;99.90;;;;;;5091967;28;20032;-76
2023/03/20 02:09:49;;;;;;;4.68;3.28;;;11.40;99.90;;;;;;5091510;28;20024;-75
2023/03/20 02:12:16;;;;;;;5.85;3.17;;;11.50;99.90;;;;;;5091896;28;20092;-77
2023/03/20 02:14:45;;;;;;;4.20;3.05;;;11.50;99.90;;;;;;5091357;28;20031;-75
2023/03/20 02:17:11;;;;;;;5.03;3.28;;;11.50;99.90;;;;;;5091695;28;20030;-76
2023/03/20 02:19:55;;;;;;;4.68;3.28;;;11.60;99.90;;;;;;5091422;28;20031;-76
2023/03/20 02:22:25;;;;;;;6.68;3.10;;;11.60;99.90;;;;;;5091884;28;20064;-76
2023/03/20 02:25:14;;;;;;;6.38;3.25;;;11.60;99.90;;;;;;5091750;28;20032;-76
2023/03/20 02:28:24;;;;;;;5.28;3.20;;;11.70;99.90;;;;;;5090812;28;20129;-76
2023/03/20 02:31:20;;;;;;;4.90;3.10;;;11.60;99.90;;;;;;5068236;28;20094;-76
2023/03/20 02:34:33;;;;;;;5.03;3.03;;;11.60;99.90;;;;;;5068415;28;20265;-76
2023/03/20 02:37:32;;;;;;;6.88;3.10;;;11.60;99.90;;;;;;5064956;28;20040;-76
2023/03/20 02:40:15;;;;;;;5.63;3.10;;;11.60;99.90;;;;;;5051802;28;20117;-76
2023/03/20 02:42:55;;;;;;;5.80;3.38;;;11.60;99.90;;;;;;5067919;28;20098;-76
2023/03/20 02:45:32;;;;;;;4.60;2.83;;;11.60;99.90;;;;;;5068617;28;20063;-76
2023/03/20 02:48:10;;;;;;;3.10;2.80;;;11.70;99.90;;;;;;5068334;28;20115;-76
2023/03/20 02:51:02;;;;;;;4.03;3.08;;;11.60;99.90;;;;;;5067554;28;20095;-76
2023/03/20 02:53:39;;;;;;;4.72;3.10;;;11.70;99.90;;;;;;5068103;28;20040;-79
2023/03/20 02:56:31;;;;;;;3.60;2.83;;;11.60;99.90;;;;;;5067830;28;20048;-76
2023/03/20 02:59:36;;;;;;;4.63;3.33;;;11.60;99.90;;;;;;5063141;28;20480;-76
2023/03/20 03:02:09;;;;;;;4.53;2.80;;;11.70;99.90;;;;;;5079299;28;20515;-76
2023/03/20 03:04:40;;;;;;;6.82;2.70;;;11.70;99.90;;;;;;5090140;28;20497;-75
2023/03/20 03:07:10;;;;;;;4.07;2.60;;;11.70;99.90;;;;;;5091057;28;20401;-75
2023/03/20 03:09:46;;;;;;;3.50;3.00;;;11.60;99.90;;;;;;5090598;28;20218;-76
2023/03/20 03:12:17;;;;;;;4.40;2.90;;;11.70;99.90;;;;;;5090813;28;20093;-75
2023/03/20 03:14:50;;;;;;;3.75;2.58;;;11.60;99.90;;;;;;5090670;28;20052;-75
2023/03/20 03:17:18;;;;;;;4.93;3.00;;;11.60;99.90;;;;;;5091539;28;20030;-75
2023/03/20 03:19:48;;;;;;;5.10;3.25;;;11.60;99.90;;;;;;5090667;28;20024;-77
2023/03/20 03:22:15;;;;;;;3.78;2.30;;;11.60;99.90;;;;;;5089457;28;20043;-75
2023/03/20 03:24:50;;;;;;;3.58;2.80;;;11.50;99.90;;;;;;5090757;28;20032;-75
2023/03/20 03:27:38;;;;;;;3.80;2.60;;;11.60;99.90;;;;;;5090149;28;20072;-75
2023/03/20 03:30:09;;;;;;;5.22;2.50;;;11.60;99.90;;;;;;5090471;28;20078;-77
2023/03/20 03:32:48;;;;;;;5.38;2.70;;;11.60;99.90;;;;;;5089837;28;20039;-75
2023/03/20 03:35:20;;;;;;;3.47;2.53;;;11.60;99.90;;;;;;5090188;28;20024;-76
2023/03/20 03:37:58;;;;;;;4.53;2.97;;;11.60;99.90;;;;;;5088366;28;20030;-75
2023/03/20 03:40:52;;;;;;;4.45;2.88;;;11.60;99.90;;;;;;5090243;28;20024;-76
2023/03/20 03:43:29;;;;;;;4.50;2.80;;;11.60;99.90;;;;;;5089957;28;20104;-75
2023/03/20 03:46:03;;;;;;;5.72;2.78;;;11.60;99.90;;;;;;5090553;28;20028;-75
2023/03/20 03:48:39;;;;;;;3.95;2.58;;;11.60;99.90;;;;;;5090094;28;20024;-76
2023/03/20 03:51:09;;;;;;;4.45;2.75;;;11.60;99.90;;;;;;5090204;28;20028;-75
2023/03/20 03:53:40;;;;;;;6.18;2.60;;;11.60;99.90;;;;;;5089783;28;20143;-76
2023/03/20 03:56:11;;;;;;;2.50;2.30;;;11.60;99.90;;;;;;5088836;28;20020;-76
2023/03/20 03:58:44;;;;;;;4.28;2.88;;;11.60;99.90;;;;;;5089645;28;20020;-76
2023/03/20 04:01:13;;;;;;;3.53;2.70;;;11.70;99.90;;;;;;5090250;28;20048;-75
2023/03/20 04:03:43;;;;;;;2.63;2.38;;;11.70;99.90;;;;;;5089630;28;20032;-76
2023/03/20 04:06:14;;;;;;;2.97;2.60;;;11.70;99.90;;;;;;5091260;28;20103;-76
2023/03/20 04:08:40;;;;;;;3.08;2.50;;;11.70;99.90;;;;;;5093823;28;20174;-75
2023/03/20 04:11:13;;;;;;;3.95;2.55;;;11.70;99.90;;;;;;5094202;28;20036;-76
2023/03/20 04:13:39;;;;;;;9.32;2.85;;;11.70;99.90;;;;;;5093483;28;20055;-76
2023/03/20 04:16:05;;;;;;;3.85;2.97;;;11.60;99.90;;;;;;5094131;28;20447;-76
2023/03/20 04:18:31;;;;;;;5.82;3.10;;;11.60;99.90;;;;;;5093882;28;20024;-75
2023/03/20 04:20:56;;;;;;;4.47;3.25;;;11.60;99.90;;;;;;5093165;28;20106;-75
2023/03/20 04:23:22;;;;;;;3.55;2.55;;;11.60;99.90;;;;;;5093875;28;20025;-75
2023/03/20 04:25:49;;;;;;;4.25;2.63;;;11.60;99.90;;;;;;5093244;28;20145;-75
2023/03/20 04:28:15;;;;;;;4.80;3.03;;;11.50;99.90;;;;;;5091919;28;20064;-75
2023/03/20 04:30:43;;;;;;;5.00;2.85;;;11.50;99.90;;;;;;5093182;28;20031;-75
2023/03/20 04:33:08;;;;;;;4.45;3.05;;;11.50;99.90;;;;;;5092376;28;20036;-76
2023/03/20 04:35:34;;;;;;;5.03;3.50;;;11.50;99.90;;;;;;5091752;28;20020;-79
2023/03/20 04:38:00;;;;;;;5.57;3.40;;;11.50;99.90;;;;;;5093102;28;20157;-76
2023/03/20 04:40:26;;;;;;;5.68;3.40;;;11.50;99.90;;;;;;5093653;28;20059;-75
2023/03/20 04:42:52;;;;;;;5.20;3.30;;;11.50;99.90;;;;;;5093016;28;20451;-74
2023/03/20 04:45:17;;;;;;;5.57;3.60;;;11.50;99.90;;;;;;5093069;28;20473;-75
2023/03/20 04:47:43;;;;;;;6.60;3.33;;;11.50;99.90;;;;;;5092921;28;20028;-77
2023/03/20 04:50:10;;;;;;;3.88;3.42;;;11.40;99.90;;;;;;5091963;28;20028;-76
2023/03/20 04:52:36;;;;;;;4.88;3.30;;;11.40;99.90;;;;;;5092933;28;20030;-79
2023/03/20 04:55:02;;;;;;;5.63;3.95;;;11.40;99.90;;;;;;5093358;28;20107;-75
2023/03/20 04:57:30;;;;;;;4.70;3.70;;;11.50;99.90;;;;;;5093237;28;20036;-75
2023/03/20 04:59:56;;;;;;;7.05;4.13;;;11.40;99.90;;;;;;5092513;28;20128;-75
2023/03/20 05:02:22;;;;;;;4.85;4.10;;;11.50;99.90;;;;;;5093535;28;20084;-75
2023/03/20 05:04:47;;;;;;;5.75;3.83;;;11.40;99.90;;;;;;5092703;28;20047;-76
2023/03/20 05:07:13;;;;;;;5.80;4.13;;;11.40;99.90;;;;;;5091591;28;20346;-76
2023/03/20 05:09:39;;;;;;;5.97;4.15;;;11.40;99.90;;;;;;5092483;28;20071;-80
2023/03/20 05:12:05;;;;;;;6.10;4.20;;;11.40;99.90;;;;;;5093337;28;20107;-76
2023/03/20 05:14:30;;;;;;;7.05;4.40;;;11.40;99.90;;;;;;5092860;28;20368;-76
2023/03/20 05:16:56;;;;;;;7.25;4.88;;;11.40;99.90;;;;;;5091787;28;20176;-76
2023/03/20 05:19:22;;;;;;;5.32;4.22;;;11.40;99.90;;;;;;5092446;28;20028;-76
2023/03/20 05:21:47;;;;;;;4.95;4.30;;;11.40;99.90;;;;;;5092269;28;20059;-76
2023/03/20 05:24:13;;;;;;;5.65;3.90;;;11.30;99.90;;;;;;5092786;28;20066;-76
2023/03/20 05:26:39;;;;;;;5.18;3.97;;;11.30;99.90;;;;;;5091851;28;20028;-80
2023/03/20 05:29:04;;;;;;;5.15;4.10;;;11.30;99.90;;;;;;5092469;28;20024;-75
2023/03/20 05:31:30;;;;;;;4.82;3.67;;;11.30;99.90;;;;;;5092943;28;20105;-76
2023/03/20 05:33:56;;;;;;;4.30;3.80;;;11.20;99.90;;;;;;5091921;28;20454;-76
2023/03/20 05:36:22;;;;;;;4.07;3.35;;;11.20;99.90;;;;;;5092478;28;20376;-76
2023/03/20 05:38:47;;;;;;;4.63;3.38;;;11.20;99.90;;;;;;5091873;28;20035;-76
2023/03/20 05:41:13;;;;;;;3.88;3.45;;;11.20;99.90;;;;;;5092386;28;20024;-76
2023/03/20 05:43:39;;;;;;;3.75;3.30;;;11.20;99.90;;;;;;5092210;28;20047;-79
2023/03/20 05:46:05;;;;;;;5.93;3.60;;;11.20;99.90;;;;;;5091977;28;20032;-75
2023/03/20 05:48:30;;;;;;;2.88;2.67;;;11.20;99.90;;;;;;5092311;28;20447;-75
2023/03/20 05:50:56;;;;;;;4.95;3.70;;;11.20;99.90;;;;;;5090261;28;20115;-75
2023/03/20 05:53:22;;;;;;;5.15;3.17;;;11.20;99.90;;;;;;5092403;28;20059;-75
2023/03/20 05:55:48;;;;;;;4.85;3.00;;;11.20;99.90;;;;;;5090365;28;20393;-76
2023/03/20 05:58:13;;;;;;;4.65;3.15;;;11.10;99.90;;;;;;5092234;28;20021;-75
2023/03/20 06:00:39;;;;;;;5.18;3.40;;;11.20;99.90;;;;;;5091990;28;20394;-75
2023/03/20 06:03:08;;;;;;;3.60;2.60;;;11.20;99.90;;;;;;5090350;28;20122;-76
2023/03/20 06:05:34;;;;;;;3.15;2.85;;;11.10;99.90;;;;;;5091661;28;20126;-76
2023/03/20 06:08:01;;;;;;;4.70;3.25;;;11.20;99.90;;;;;;5091381;28;20196;-76
2023/03/20 06:10:28;;;;;;;3.97;2.83;;;11.20;99.90;;;;;;5091857;28;20024;-76
2023/03/20 06:12:55;;;;;;;4.15;2.63;;;11.20;99.90;;;;;;5089537;28;20042;-75
2023/03/20 06:15:21;;;;;;;3.47;2.45;;;11.10;99.90;;;;;;5091738;28;20552;-75
2023/03/20 06:17:47;;;;;;;3.03;2.70;;;11.10;99.90;;;;;;5091435;28;20058;-76
2023/03/20 06:20:13;;;;;;;3.00;2.70;;;11.10;99.90;;;;;;5091552;28;20059;-77
2023/03/20 06:22:38;;;;;;;6.13;2.67;;;11.10;99.90;;;;;;5091490;28;20028;-79
2023/03/20 06:25:05;;;;;;;4.18;2.65;;;11.10;99.90;;;;;;5090978;28;20502;-80
2023/03/20 06:27:31;;;;;;;3.97;3.15;;;11.00;99.90;;;;;;5091675;28;20055;-78
2023/03/20 06:29:57;;;;;;;4.75;3.70;;;11.00;99.90;;;;;;5090396;28;20024;-77
2023/03/20 06:32:22;;;;;;;5.57;3.53;;;11.00;99.90;;;;;;5091428;28;20121;-78
2023/03/20 06:34:48;;;;;;;7.95;3.90;;;11.00;99.90;;;;;;5090852;28;20066;-78
2023/03/20 06:37:14;;;;;;;6.05;3.47;;;11.00;99.90;;;;;;5091142;28;20424;-77
2023/03/20 06:39:40;;;;;;;6.50;4.18;;;10.90;99.90;;;;;;5091086;28;20047;-77
2023/03/20 06:42:06;;;;;;;4.57;3.53;;;10.90;99.90;;;;;;5090556;28;20127;-77
2023/03/20 06:44:31;;;;;;;6.35;3.50;;;10.90;99.90;;;;;;5089975;28;20415;-78
2023/03/20 06:46:57;;;;;;;7.53;4.18;;;10.90;99.90;;;;;;5091776;28;20051;-77
2023/03/20 06:49:23;;;;;;;11.05;5.28;;;10.80;99.90;;;;;;5091260;28;20055;-77
2023/03/20 06:51:49;;;;;;;7.78;4.60;;;10.80;99.90;;;;;;5090306;28;20129;-76
2023/03/20 06:54:14;;;;;;;9.43;4.70;;;10.80;99.90;;;;;;5090820;28;20074;-77
2023/03/20 06:56:40;;;;;;;10.55;5.30;;;10.80;99.90;;;;;;5091644;28;20107;-77
2023/03/20 06:59:06;;;;;;;7.32;4.13;;;10.70;99.90;;;;;;5090694;28;20763;-77
2023/03/20 07:01:32;;;;;;;9.77;6.18;;;10.80;99.90;;;;;;5089630;28;20169;-76
2023/03/20 07:03:58;;;;;;;8.38;5.30;;;10.80;99.90;;;;;;5090591;28;20040;-76
2023/03/20 07:06:23;;;;;;;4.90;3.83;;;10.80;99.90;;;;;;5091222;28;20028;-75
2023/03/20 07:08:51;;;;;;;7.28;4.25;;;10.80;99.90;;;;;;5090072;28;20057;-77
2023/03/20 07:11:17;;;;;;;6.32;3.88;;;10.80;99.90;;;;;;5091411;28;20023;-77
2023/03/20 07:13:43;;;;;;;8.30;3.97;;;10.90;99.90;;;;;;5090633;28;20504;-77
2023/03/20 07:16:09;;;;;;;4.15;3.33;;;10.90;99.90;;;;;;5090225;28;20042;-77
2023/03/20 07:18:35;;;;;;;5.88;3.70;;;10.90;99.90;;;;;;5090950;28;20467;-76
2023/03/20 07:21:04;;;;;;;4.10;2.97;;;10.90;99.90;;;;;;5090160;28;20016;-77
2023/03/20 07:23:30;;;;;;;5.15;3.22;;;11.00;99.90;;;;;;5090576;28;20379;-76
2023/03/20 07:25:56;;;;;;;4.22;2.97;;;11.00;99.90;;;;;;5090200;28;20417;-76
2023/03/20 07:28:22;;;;;;;4.82;3.60;;;11.00;99.90;;;;;;5089238;28;20044;-76
2023/03/20 07:30:48;;;;;;;4.72;3.22;;;11.10;99.90;;;;;;5090547;28;20073;-80
2023/03/20 07:33:14;;;;;;;5.47;3.60;;;11.10;99.90;;;;;;5090794;28;20042;-76
2023/03/20 07:35:40;;;;;;;6.43;3.70;;;11.10;99.90;;;;;;5090790;28;20394;-76
2023/03/20 07:38:06;;;;;;;7.43;3.33;;;11.20;99.90;;;;;;5090160;28;20060;-76
2023/03/20 07:40:32;;;;;;;5.75;2.90;;;11.20;99.90;;;;;;5090976;28;20028;-75
2023/03/20 07:42:58;;;;;;;3.17;1.95;;;11.20;99.90;;;;;;5096855;28;20111;-75
2023/03/20 07:45:24;;;;;;;4.22;2.20;;;11.30;99.90;;;;;;5097374;28;20111;-74
2023/03/20 07:47:49;;;;;;;3.88;2.17;;;11.30;99.90;;;;;;5096792;28;20024;-77
2023/03/20 07:50:15;;;;;;;7.50;2.42;;;11.30;99.90;;;;;;5095656;28;20039;-75
2023/03/20 07:52:46;;;;;;;5.07;2.60;;;11.30;99.90;;;;;;5097138;28;20032;-75
2023/03/20 07:55:12;;;;;;;4.13;3.08;;;11.40;99.90;;;;;;5096630;28;20020;-75
2023/03/20 07:57:38;;;;;;;6.50;2.42;;;11.40;99.90;;;;;;5078739;28;20449;-75
2023/03/20 08:00:04;;;;;;;3.38;2.42;;;11.40;99.90;;;;;;5096550;28;20021;-75
2023/03/20 08:02:30;;;;;;;3.65;2.53;;;11.50;99.90;;;;;;5096588;28;20402;-75
2023/03/20 08:04:55;;;;;;;5.00;2.28;;;11.60;99.90;;;;;;5096357;28;20028;-75
2023/03/20 08:07:21;;;;;;;3.60;2.00;;;11.60;99.90;;;;;;5095418;28;20382;-75
2023/03/20 08:09:47;;;;;;;2.53;1.50;;;11.60;99.90;;;;;;5097057;28;20021;-75
2023/03/20 08:12:12;;;;;;;3.30;1.40;;;11.70;99.90;;;;;;5096672;28;20032;-76
2023/03/20 08:14:38;;;;;;;2.65;1.60;;;11.70;99.90;;;;;;5096713;28;20035;-76
2023/03/20 08:17:04;;;;;;;1.88;1.60;;;11.80;99.90;;;;;;5096732;28;20046;-75
2023/03/20 08:19:30;;;;;;;6.47;1.90;;;11.80;99.90;;;;;;5097589;28;20020;-76
2023/03/20 08:21:56;;;;;;;9.88;2.35;;;11.90;99.90;;;;;;5096826;28;20030;-77
2023/03/20 08:24:21;;;;;;;4.93;1.75;;;11.90;99.90;;;;;;5097475;28;20085;-75
2023/03/20 08:26:47;;;;;;;5.07;1.70;;;12.00;99.90;;;;;;5096967;28;20035;-76
2023/03/20 08:29:16;;;;;;;49.05;6.57;;;12.00;99.90;;;;;;5096948;28;20028;-76
2023/03/20 08:31:41;;;;;;;65.78;9.20;;;12.10;99.90;;;;;;5096003;28;20101;-76
2023/03/20 08:34:07;;;;;;;10.18;2.13;;;12.10;99.90;;;;;;5096893;28;20522;-75
2023/03/20 08:36:33;;;;;;;4.65;1.27;;;12.10;99.90;;;;;;5098235;28;20036;-75
2023/03/20 08:38:59;;;;;;;3.00;1.25;;;12.10;99.90;;;;;;5106452;28;20359;-75
2023/03/20 08:41:24;;;;;;;1.17;0.88;;;12.20;99.90;;;;;;5117979;27;20055;-75
2023/03/20 08:43:50;;;;;;;1.63;1.05;;;12.20;99.90;;;;;;5091272;27;20059;-74
2023/03/20 08:46:16;;;;;;;1.60;0.90;;;12.20;99.90;;;;;;5095910;28;20028;-74
2023/03/20 08:48:41;;;;;;;3.33;1.20;;;12.30;99.90;;;;;;5097689;28;20319;-75
2023/03/20 08:51:07;;;;;;;1.73;0.90;;;12.30;99.90;;;;;;5096877;28;20378;-75
2023/03/20 08:53:33;;;;;;;1.65;1.00;;;12.30;99.90;;;;;;5094469;28;20080;-75
2023/03/20 08:56:00;;;;;;;2.20;1.08;;;12.40;99.90;;;;;;5093786;28;20024;-75
2023/03/20 08:58:26;;;;;;;1.40;1.00;;;12.40;99.90;;;;;;5109602;28;20024;-75
2023/03/20 09:00:52;;;;;;;1.35;1.20;;;12.50;99.90;;;;;;5093286;28;20039;-75
2023/03/20 09:03:19;;;;;;;1.33;0.98;;;12.60;99.90;;;;;;5092547;28;20040;-74
2023/03/20 09:05:51;;;;;;;1.80;1.08;;;12.70;99.90;;;;;;5093465;28;20035;-75
2023/03/20 09:08:17;;;;;;;2.08;1.08;;;12.70;99.90;;;;;;5103329;28;20036;-75
2023/03/20 09:10:42;;;;;;;1.90;0.98;;;12.80;99.90;;;;;;5113546;28;20020;-74
2023/03/20 09:13:09;;;;;;;1.40;1.00;;;12.80;99.90;;;;;;5113130;28;20423;-74
2023/03/20 09:15:35;;;;;;;1.92;0.95;;;12.90;99.90;;;;;;5114058;28;20016;-75
2023/03/20 09:18:01;;;;;;;2.28;1.13;;;12.90;99.90;;;;;;5113053;28;20020;-75
2023/03/20 09:20:27;;;;;;;2.42;0.85;;;13.00;99.90;;;;;;5113727;28;20330;-75
2023/03/20 09:22:52;;;;;;;1.33;1.08;;;13.10;99.90;;;;;;5112954;28;20046;-75
2023/03/20 09:25:18;;;;;;;1.40;0.90;;;13.20;99.90;;;;;;5113077;28;20030;-75
2023/03/20 09:27:45;;;;;;;1.42;0.73;;;13.30;99.90;;;;;;5112905;28;20118;-75
2023/03/20 09:30:11;;;;;;;1.48;1.13;;;13.50;99.90;;;;;;5112839;28;20028;-75
2023/03/20 09:32:37;;;;;;;1.20;0.73;;;13.60;99.90;;;;;;5113342;28;20023;-75
2023/03/20 09:35:05;;;;;;;1.40;0.80;;;13.70;99.90;;;;;;5112243;28;20045;-75
2023/03/20 09:37:30;;;;;;;3.58;1.10;;;13.70;99.90;;;;;;5113045;28;20088;-76
2023/03/20 09:39:56;;;;;;;2.33;0.73;;;13.80;99.90;;;;;;5112551;28;20024;-79
2023/03/20 09:42:27;;;;;;;0.90;0.68;;;13.90;99.90;;;;;;5112241;28;20047;-74
2023/03/20 09:45:10;;;;;;;0.77;0.60;;;13.90;99.90;;;;;;5111200;28;20092;-75
2023/03/20 09:47:40;;;;;;;2.80;1.23;;;13.90;99.90;;;;;;5112922;28;20111;-75
2023/03/20 09:50:22;;;;;;;2.03;1.02;;;13.90;99.90;;;;;;5112244;28;20024;-76
2023/03/20 09:53:24;;;;;;;2.63;0.75;;;14.00;99.90;;;;;;5112519;28;20402;-76
2023/03/20 09:55:52;;;;;;;0.85;0.52;;;14.10;99.90;;;;;;5112704;28;20355;-76
2023/03/20 09:58:26;;;;;;;2.67;0.90;;;14.10;99.90;;;;;;5112032;28;20031;-76
2023/03/20 10:00:57;;;;;;;1.08;0.68;;;14.20;99.90;;;;;;5112486;28;20028;-75
2023/03/20 10:03:37;;;;;;;1.58;0.80;;;14.20;99.90;;;;;;5111019;28;20039;-75
2023/03/20 10:06:11;;;;;;;2.10;0.75;;;14.30;99.90;;;;;;5111891;28;20023;-76
2023/03/20 10:08:38;;;;;;;1.85;0.85;;;14.40;99.90;;;;;;5112838;28;20019;-75
2023/03/20 10:11:35;;;;;;;4.82;0.88;;;14.40;99.90;;;;;;5111341;28;20028;-78
2023/03/20 10:14:16;;;;;;;1.13;0.80;;;14.50;99.90;;;;;;5110996;28;20114;-76
2023/03/20 10:17:16;;;;;;;0.80;0.47;;;14.60;99.90;;;;;;5111936;28;20020;-76
2023/03/20 10:19:55;;;;;;;3.85;1.10;;;14.70;99.90;;;;;;5112487;28;20034;-76
2023/03/20 10:22:31;;;;;;;2.85;0.95;;;14.80;99.90;;;;;;5111518;28;20062;-75
2023/03/20 10:25:06;;;;;;;2.20;0.77;;;14.90;99.90;;;;;;5111518;28;20024;-76
2023/03/20 10:27:34;;;;;;;1.48;0.70;;;14.90;99.90;;;;;;5111648;28;20108;-75
2023/03/20 10:30:41;;;;;;;0.93;0.80;;;14.80;99.90;;;;;;5111229;28;20027;-81
2023/03/20 10:33:25;;;;;;;1.77;0.95;;;14.80;99.90;;;;;;5109550;28;20427;-76
2023/03/20 10:36:26;;;;;;;1.60;0.80;;;14.90;99.90;;;;;;5111379;28;20493;-75
2023/03/20 10:39:16;;;;;;;2.50;1.10;;;14.90;99.90;;;;;;5111045;28;20024;-76
2023/03/20 10:41:49;;;;;;;4.82;0.95;;;15.00;99.90;;;;;;5112423;28;20080;-76
2023/03/20 10:44:28;;;;;;;2.00;1.10;;;15.10;99.90;;;;;;5111101;28;20027;-77
2023/03/20 10:46:56;;;;;;;5.03;1.15;;;15.10;99.90;;;;;;5105939;28;20028;-75
2023/03/20 10:49:42;;;;;;;3.50;1.17;;;15.10;99.90;;;;;;5090741;28;20103;-77
2023/03/20 10:52:17;;;;;;;1.52;0.85;;;15.20;99.90;;;;;;5091377;28;20538;-76
2023/03/20 10:54:59;;;;;;;1.88;0.88;;;15.20;99.90;;;;;;5091980;28;20484;-76
2023/03/20 10:57:30;;;;;;;1.33;0.75;;;15.20;99.90;;;;;;5091301;28;20103;-75
2023/03/20 10:59:57;;;;;;;3.22;1.25;;;15.20;99.90;;;;;;5091968;28;20028;-75
2023/03/20 11:02:32;;;;;;;4.72;1.10;;;15.20;99.90;;;;;;5089969;28;20044;-75
2023/03/20 11:05:19;;;;;;;4.97;1.10;;;15.20;99.90;;;;;;5091887;28;20471;-75
2023/03/20 11:07:46;;;;;;;3.28;1.33;;;15.20;99.90;;;;;;5091799;28;20395;-75
2023/03/20 11:10:15;;;;;;;3.20;1.17;;;15.10;99.90;;;;;;5091122;28;20478;-76
2023/03/20 11:12:49;;;;;;;2.78;1.20;;;15.00;99.90;;;;;;5091792;28;20028;-76
2023/03/20 11:15:20;;;;;;;2.63;1.13;;;14.90;99.90;;;;;;5090227;28;20035;-76
2023/03/20 11:17:56;;;;;;;1.63;0.80;;;14.90;99.90;;;;;;5091442;28;20036;-76
2023/03/20 11:20:23;;;;;;;3.28;1.00;;;14.90;99.90;;;;;;5090730;28;20219;-75
2023/03/20 11:22:50;;;;;;;1.00;0.70;;;14.90;99.90;;;;;;5091257;28;20032;-76
2023/03/20 11:25:33;;;;;;;4.32;1.50;;;15.00;99.90;;;;;;5090726;28;20337;-76
2023/03/20 11:28:19;;;;;;;3.42;1.27;;;15.10;99.90;;;;;;5090231;28;20363;-75
2023/03/20 11:30:46;;;;;;;3.60;1.17;;;15.10;99.90;;;;;;5091245;28;20382;-75
2023/03/20 11:33:14;;;;;;;7.90;1.98;;;15.10;99.90;;;;;;5091263;28;20077;-75
2023/03/20 11:35:45;;;;;;;3.65;1.20;;;15.00;99.90;;;;;;5091355;28;20154;-74
2023/03/20 11:38:16;;;;;;;7.60;1.35;;;15.00;99.90;;;;;;5090894;28;20422;-75
2023/03/20 11:40:42;;;;;;;6.05;1.50;;;15.00;99.90;;;;;;5091569;28;20038;-75
2023/03/20 11:43:21;;;;;;;2.58;1.27;;;15.00;99.90;;;;;;5090514;28;20032;-76
2023/03/20 11:45:56;;;;;;;2.67;1.27;;;15.10;99.90;;;;;;5091550;28;20035;-76
2023/03/20 11:48:44;;;;;;;5.05;1.30;;;15.10;99.90;;;;;;5090768;28;20028;-76
2023/03/20 11:51:19;;;;;;;5.03;1.42;;;15.10;99.90;;;;;;5090120;28;20043;-74
2023/03/20 11:53:47;;;;;;;2.30;1.10;;;15.10;99.90;;;;;;5091439;28;20111;-76
2023/03/20 11:56:22;;;;;;;4.40;1.65;;;15.10;99.90;;;;;;5090500;28;20117;-76
2023/03/20 11:59:09;;;;;;;7.13;1.80;;;15.20;99.90;;;;;;5091208;28;20028;-76
2023/03/20 12:01:45;;;;;;;2.55;1.27;;;15.30;99.90;;;;;;5089788;28;20366;-76
2023/03/20 12:04:26;;;;;;;5.13;1.65;;;15.30;99.90;;;;;;5090259;28;20067;-76
2023/03/20 12:07:11;;;;;;;7.25;2.10;;;15.30;99.90;;;;;;5091791;28;20380;-76
2023/03/20 12:09:58;;;;;;;4.70;1.73;;;15.40;99.90;;;;;;5090676;28;20024;-76
2023/03/20 12:12:32;;;;;;;7.15;1.55;;;15.40;99.90;;;;;;5090736;28;20039;-75
2023/03/20 12:15:07;;;;;;;7.53;1.48;;;15.30;99.90;;;;;;5090888;28;20028;-77
2023/03/20 12:17:32;;;;;;;4.55;1.73;;;15.40;99.90;;;;;;5091029;28;20020;-76
2023/03/20 12:20:23;;;;;;;5.07;1.40;;;15.40;99.90;;;;;;5090395;28;20428;-76
2023/03/20 12:22:53;;;;;;;7.63;2.00;;;15.40;99.90;;;;;;5090174;28;20488;-76
2023/03/20 12:25:28;;;;;;;7.00;1.33;;;15.40;99.90;;;;;;5089137;28;20058;-76
2023/03/20 12:28:10;;;;;;;5.40;1.60;;;15.40;99.90;;;;;;5092605;28;20443;-76
2023/03/20 12:31:10;;;;;;;4.50;1.70;;;15.50;99.90;;;;;;5094008;28;20093;-76
2023/03/20 12:34:05;;;;;;;8.68;1.40;;;15.50;99.90;;;;;;5093410;28;20031;-75
2023/03/20 12:36:34;;;;;;;6.50;1.40;;;15.50;99.90;;;;;;5093102;28;20024;-75
2023/03/20 12:39:06;;;;;;;3.40;1.38;;;15.40;99.90;;;;;;5093678;28;20028;-74
2023/03/20 12:42:06;;;;;;;3.22;1.42;;;15.40;99.90;;;;;;5092968;28;20021;-76
2023/03/20 12:44:57;;;;;;;5.07;1.40;;;15.40;99.90;;;;;;5091526;28;20028;-76
2023/03/20 12:47:34;;;;;;;3.80;1.90;;;15.40;99.90;;;;;;5092609;28;20390;-76
2023/03/20 12:50:21;;;;;;;4.10;1.45;;;15.40;99.90;;;;;;5093401;28;20043;-76
2023/03/20 12:53:20;;;;;;;4.53;1.40;;;15.50;99.90;;;;;;5093387;28;20024;-76
2023/03/20 12:56:26;;;;;;;6.57;1.17;;;15.50;99.90;;;;;;5093468;28;20020;-76
2023/03/20 12:58:52;;;;;;;3.33;1.10;;;15.70;99.90;;;;;;5093431;28;20134;-76
2023/03/20 13:01:29;;;;;;;4.55;1.27;;;15.80;99.90;;;;;;5092417;28;20152;-76
2023/03/20 13:03:57;;;;;;;3.17;1.45;;;15.80;99.90;;;;;;5093695;28;20545;-76
2023/03/20 13:06:41;;;;;;;5.80;1.48;;;15.90;99.90;;;;;;5092714;28;20027;-76
2023/03/20 13:09:07;;;;;;;7.60;1.70;;;16.00;99.90;;;;;;5092814;28;20021;-77
2023/03/20 13:11:48;;;;;;;10.18;1.90;;;16.20;99.90;;;;;;5092461;28;20051;-76